Ash Shaykh Uthman, Yemen
Current Conditions -  °F | °C
As of 12:00 PM on Saturday 20 Dec 2014 (Local Time) from OYAA Reporting Station
Scattered Clouds Scattered Clouds  
Wind Chill: 28°   Ceiling: Unl
Heat Index: 29°   Visibility: 6mi
Dew Point: 17°   Wind: 16mph
Humidity: 51%   Direction: 110°ESE
Pressure: 30.06"   Gusts: NA
Location:  12.87°N, 44.98°E
Report Text: OYAA 200900Z 11014KT 9999 SCT018 28/17 Q1018 NOSIG
Loading
Personal Weather Stations






























Interactive Weather Map New forecast layout! Learn more

10-Day Weather Forecast

Advertisements
Track Severe Weather on mobile